createdAt,value
2022-09-13T00:02:04.777Z,9.68
2022-09-13T00:04:52.923Z,9.88
2022-09-13T00:07:41.077Z,11.20
2022-09-13T00:10:29.584Z,10.43
2022-09-13T00:13:19.758Z,11.80
2022-09-13T00:16:13.190Z,10.75
2022-09-13T00:19:01.830Z,12.48
2022-09-13T00:21:50.000Z,11.73
2022-09-13T00:24:38.335Z,11.60
2022-09-13T00:27:26.475Z,11.65
2022-09-13T00:30:16.151Z,11.88
2022-09-13T00:33:04.700Z,11.90
2022-09-13T00:35:52.972Z,11.93
2022-09-13T00:38:41.555Z,11.27
2022-09-13T00:41:30.138Z,11.50
2022-09-13T00:44:57.616Z,11.10
2022-09-13T00:47:52.379Z,12.25
2022-09-13T00:50:44.080Z,13.07
2022-09-13T00:53:34.808Z,13.20
2022-09-13T00:56:26.564Z,12.05
2022-09-13T00:59:22.423Z,12.45
2022-09-13T01:02:11.302Z,12.18
2022-09-13T01:05:01.246Z,11.77
2022-09-13T01:07:49.641Z,11.85
2022-09-13T01:10:40.299Z,11.57
2022-09-13T01:13:32.990Z,13.18
2022-09-13T01:16:21.223Z,12.75
2022-09-13T01:19:09.412Z,12.98
2022-09-13T01:22:24.950Z,12.60
2022-09-13T01:25:41.040Z,12.75
2022-09-13T01:28:56.713Z,13.25
2022-09-13T01:31:55.166Z,12.38
2022-09-13T01:34:55.481Z,12.40
2022-09-13T01:37:52.722Z,12.48
2022-09-13T01:40:54.497Z,12.82
2022-09-13T01:43:53.732Z,12.05
2022-09-13T01:46:52.428Z,12.27
2022-09-13T01:49:47.473Z,12.55
2022-09-13T01:52:46.560Z,12.38
2022-09-13T01:55:41.746Z,12.80
2022-09-13T01:58:38.028Z,12.95
2022-09-13T02:01:31.234Z,12.82
2022-09-13T02:04:24.648Z,12.65
2022-09-13T02:07:18.426Z,12.43
2022-09-13T02:10:10.727Z,13.10
2022-09-13T02:13:00.943Z,13.05
2022-09-13T02:15:53.204Z,12.65
2022-09-13T02:18:45.025Z,12.38
2022-09-13T02:21:39.714Z,12.18
2022-09-13T02:24:31.503Z,12.80
2022-09-13T02:27:25.292Z,11.82
2022-09-13T02:30:15.436Z,12.13
2022-09-13T02:33:08.662Z,11.77
2022-09-13T02:36:01.660Z,11.80
2022-09-13T02:38:55.960Z,10.60
2022-09-13T02:41:50.182Z,10.02
2022-09-13T02:44:41.150Z,10.18
2022-09-13T02:50:36.353Z,10.05
2022-09-13T02:53:32.417Z,9.85
2022-09-13T02:56:28.168Z,10.40
2022-09-13T02:59:18.122Z,9.63
2022-09-13T03:02:09.425Z,9.32
2022-09-13T03:04:57.671Z,8.52
2022-09-13T03:07:45.951Z,8.98
2022-09-13T03:10:48.831Z,8.43
2022-09-13T03:13:55.986Z,8.45
2022-09-13T03:17:01.792Z,8.43
2022-09-13T03:20:04.260Z,7.38
2022-09-13T03:23:28.914Z,7.72
2022-09-13T03:26:32.690Z,8.15
2022-09-13T03:29:31.444Z,7.40
2022-09-13T03:32:30.478Z,7.10
2022-09-13T03:35:27.372Z,7.85
2022-09-13T03:38:20.853Z,7.45
2022-09-13T03:41:13.506Z,7.22
2022-09-13T03:44:04.712Z,7.65
2022-09-13T03:46:57.573Z,7.63
2022-09-13T03:49:46.456Z,7.32
2022-09-13T03:52:35.061Z,7.57
2022-09-13T03:55:23.758Z,7.22
2022-09-13T03:58:13.727Z,7.18
2022-09-13T04:01:01.941Z,6.53
2022-09-13T04:03:56.322Z,7.32
2022-09-13T04:06:44.885Z,7.13
2022-09-13T04:09:33.257Z,6.47
2022-09-13T04:12:21.429Z,6.35
2022-09-13T04:15:11.100Z,6.20
2022-09-13T04:17:59.657Z,6.35
2022-09-13T04:20:56.089Z,6.30
2022-09-13T04:23:44.424Z,6.57
2022-09-13T04:26:32.610Z,6.25
2022-09-13T04:29:21.382Z,7.10
2022-09-13T04:32:10.516Z,6.97
2022-09-13T04:34:58.640Z,7.95
2022-09-13T04:37:48.269Z,7.78
2022-09-13T04:40:37.380Z,8.45
2022-09-13T04:43:25.863Z,8.98
2022-09-13T04:46:14.075Z,8.98
2022-09-13T04:49:02.269Z,8.82
2022-09-13T04:51:50.737Z,7.82
2022-09-13T04:54:40.237Z,8.27
2022-09-13T04:57:28.589Z,8.55
2022-09-13T05:00:17.051Z,8.68
2022-09-13T05:03:05.365Z,8.57
2022-09-13T05:05:53.500Z,8.70
2022-09-13T05:08:42.013Z,8.88
2022-09-13T05:11:31.535Z,8.50
2022-09-13T05:14:19.701Z,9.30
2022-09-13T05:17:07.872Z,9.27
2022-09-13T05:19:56.347Z,9.93
2022-09-13T05:22:44.500Z,9.43
2022-09-13T05:25:32.656Z,9.73
2022-09-13T05:28:22.236Z,10.50
2022-09-13T05:31:15.833Z,10.23
2022-09-13T05:34:07.946Z,10.68
2022-09-13T05:36:56.095Z,11.40
2022-09-13T05:40:07.841Z,11.15
2022-09-13T05:42:54.116Z,10.55
2022-09-13T05:45:43.638Z,11.63
2022-09-13T05:48:32.420Z,11.18
2022-09-13T05:51:21.941Z,11.30
2022-09-13T05:54:13.183Z,11.25
2022-09-13T05:57:01.460Z,11.40
2022-09-13T05:59:49.609Z,11.00
2022-09-13T06:02:39.188Z,11.48
2022-09-13T06:05:31.758Z,10.65
2022-09-13T06:08:20.197Z,11.45
2022-09-13T06:11:10.015Z,11.68
2022-09-13T06:13:58.157Z,12.00
2022-09-13T06:16:46.277Z,11.88
2022-09-13T06:19:35.738Z,11.77
2022-09-13T06:22:23.939Z,11.80
2022-09-13T06:25:12.083Z,11.93
2022-09-13T06:28:00.245Z,11.50
2022-09-13T06:30:48.394Z,11.77
2022-09-13T06:33:38.643Z,12.60
2022-09-13T06:36:28.382Z,12.52
2022-09-13T06:39:16.569Z,12.02
2022-09-13T06:42:05.163Z,11.38
2022-09-13T06:44:53.308Z,11.52
2022-09-13T06:47:41.512Z,11.63
2022-09-13T06:50:29.721Z,10.02
2022-09-13T06:53:19.232Z,10.13
2022-09-13T06:56:09.390Z,10.15
2022-09-13T06:58:59.830Z,9.60
2022-09-13T07:01:48.089Z,10.93
2022-09-13T07:04:36.284Z,10.07
2022-09-13T07:07:24.594Z,10.32
2022-09-13T07:10:14.378Z,9.10
2022-09-13T07:13:02.557Z,9.68
2022-09-13T07:15:50.850Z,9.27
2022-09-13T07:18:39.881Z,8.95
2022-09-13T07:21:29.700Z,9.95
2022-09-13T07:24:18.787Z,10.15
2022-09-13T07:27:08.481Z,9.77
2022-09-13T07:29:57.851Z,10.18
2022-09-13T07:32:46.029Z,10.88
2022-09-13T07:35:34.543Z,10.25
2022-09-13T07:38:22.672Z,10.13
2022-09-13T07:41:13.508Z,10.18
2022-09-13T07:46:51.318Z,10.93
2022-09-13T07:49:39.475Z,10.52
2022-09-13T07:52:30.187Z,10.77
2022-09-13T07:55:18.338Z,10.45
2022-09-13T07:58:06.450Z,10.57
2022-09-13T08:00:56.050Z,10.07
2022-09-13T08:03:44.959Z,9.70
2022-09-13T08:06:35.315Z,11.10
2022-09-13T08:09:24.144Z,10.85
2022-09-13T08:12:12.299Z,11.20
2022-09-13T08:15:00.430Z,10.73
2022-09-13T08:17:49.876Z,10.25
2022-09-13T08:20:38.447Z,10.70
2022-09-13T08:23:26.992Z,10.73
2022-09-13T08:26:15.753Z,9.70
2022-09-13T08:29:07.010Z,9.25
2022-09-13T08:31:55.130Z,9.60
2022-09-13T08:34:44.620Z,9.65
2022-09-13T08:37:34.323Z,9.98
2022-09-13T08:40:23.914Z,10.50
2022-09-13T08:43:19.865Z,11.52
2022-09-13T08:46:16.447Z,10.52
2022-09-13T08:49:10.974Z,10.02
2022-09-13T08:52:17.938Z,10.15
2022-09-13T08:55:26.924Z,9.57
2022-09-13T08:58:34.148Z,10.02
2022-09-13T09:01:33.529Z,9.60
2022-09-13T09:04:35.778Z,9.95
2022-09-13T09:07:29.074Z,8.88
2022-09-13T09:10:20.463Z,8.38
2022-09-13T09:13:14.537Z,8.07
2022-09-13T09:16:07.100Z,9.57
2022-09-13T09:18:57.841Z,8.32
2022-09-13T09:21:47.846Z,7.45
2022-09-13T09:24:39.943Z,7.70
2022-09-13T09:27:31.301Z,7.00
2022-09-13T09:30:19.664Z,7.30
2022-09-13T09:33:22.851Z,6.90
2022-09-13T09:36:23.804Z,6.90
2022-09-13T09:39:14.143Z,7.30
2022-09-13T09:42:04.476Z,7.25
2022-09-13T09:44:54.616Z,6.72
2022-09-13T09:47:47.377Z,6.47
2022-09-13T09:50:40.600Z,6.30
2022-09-13T09:53:36.829Z,6.40
2022-09-13T09:56:27.500Z,6.32
2022-09-13T09:59:28.646Z,6.53
2022-09-13T10:02:20.493Z,7.00
2022-09-13T10:05:09.233Z,6.75
2022-09-13T10:08:01.135Z,6.38
2022-09-13T10:10:55.758Z,6.40
2022-09-13T10:13:59.635Z,6.95
2022-09-13T10:16:50.208Z,6.57
2022-09-13T10:19:39.469Z,6.35
2022-09-13T10:22:28.175Z,6.47
2022-09-13T10:25:20.584Z,6.43
2022-09-13T10:28:15.145Z,7.47
2022-09-13T10:31:09.193Z,6.00
2022-09-13T10:34:03.076Z,7.35
2022-09-13T10:36:57.242Z,6.93
2022-09-13T10:39:56.892Z,6.63
2022-09-13T10:42:53.895Z,5.90
2022-09-13T10:45:42.898Z,6.68
2022-09-13T10:48:43.114Z,7.85
2022-09-13T10:51:37.104Z,6.65
2022-09-13T10:54:25.650Z,6.80
2022-09-13T10:57:33.446Z,5.95
2022-09-13T11:00:24.644Z,6.57
2022-09-13T11:03:30.571Z,8.07
2022-09-13T11:06:30.140Z,6.95
2022-09-13T11:09:25.566Z,7.38
2022-09-13T11:12:20.388Z,7.35
2022-09-13T11:15:21.945Z,7.05
2022-09-13T11:18:48.919Z,6.60
2022-09-13T11:21:51.601Z,7.18
2022-09-13T11:24:54.537Z,6.47
2022-09-13T11:27:52.054Z,5.95
2022-09-13T11:30:48.780Z,7.03
2022-09-13T11:33:52.145Z,7.05
2022-09-13T11:36:55.527Z,6.70
2022-09-13T11:39:52.626Z,7.10
2022-09-13T11:42:50.775Z,6.20
2022-09-13T11:45:45.297Z,5.63
2022-09-13T11:48:55.769Z,5.78
2022-09-13T11:51:56.190Z,6.50
2022-09-13T11:55:02.052Z,5.80
2022-09-13T11:57:54.109Z,6.03
2022-09-13T12:00:45.376Z,5.85
2022-09-13T12:03:41.694Z,6.05
2022-09-13T12:06:33.363Z,5.13
2022-09-13T12:09:26.740Z,5.78
2022-09-13T12:12:16.508Z,5.47
2022-09-13T12:15:14.730Z,5.77
2022-09-13T12:18:07.904Z,4.72
2022-09-13T12:20:59.379Z,4.72
2022-09-13T12:23:53.552Z,3.60
2022-09-13T12:26:49.307Z,4.05
2022-09-13T12:29:45.247Z,3.75
2022-09-13T12:32:33.816Z,3.95
2022-09-13T12:35:27.969Z,4.50
2022-09-13T12:38:40.001Z,4.10
2022-09-13T12:41:37.355Z,4.15
2022-09-13T12:44:47.928Z,4.53
2022-09-13T12:47:58.969Z,5.40
2022-09-13T12:50:59.001Z,5.00
2022-09-13T12:54:03.687Z,5.00
2022-09-13T12:57:03.453Z,5.90
2022-09-13T13:00:05.233Z,5.10
2022-09-13T13:03:02.406Z,5.32
2022-09-13T13:05:54.776Z,5.20
2022-09-13T13:08:51.837Z,6.07
2022-09-13T13:11:46.366Z,6.15
2022-09-13T13:14:53.281Z,6.18
2022-09-13T13:17:47.628Z,6.43
2022-09-13T13:21:22.473Z,5.93
2022-09-13T13:24:47.940Z,6.05
2022-09-13T13:27:47.644Z,6.22
2022-09-13T13:30:52.371Z,5.68
2022-09-13T13:33:51.643Z,5.97
2022-09-13T13:36:49.078Z,5.07
2022-09-13T13:39:40.861Z,5.80
2022-09-13T13:42:31.645Z,5.43
2022-09-13T13:45:24.102Z,6.80
2022-09-13T13:48:16.203Z,6.78
2022-09-13T13:51:16.416Z,6.25
2022-09-13T13:54:30.076Z,6.25
2022-09-13T13:57:25.015Z,6.22
2022-09-13T14:00:17.673Z,6.55
2022-09-13T14:03:17.928Z,6.13
2022-09-13T14:06:16.425Z,6.63
2022-09-13T14:09:13.877Z,7.20
2022-09-13T14:12:17.666Z,6.20
2022-09-13T14:15:23.349Z,5.55
2022-09-13T14:18:30.852Z,7.00
2022-09-13T14:21:23.272Z,6.18
2022-09-13T14:24:19.878Z,6.97
2022-09-13T14:27:14.316Z,6.65
2022-09-13T14:30:05.883Z,6.03
2022-09-13T14:32:56.545Z,6.13
2022-09-13T14:38:35.650Z,4.93
2022-09-13T14:41:35.301Z,6.05
2022-09-13T14:44:28.926Z,5.40
2022-09-13T14:47:22.579Z,5.53
2022-09-13T14:50:16.391Z,6.35
2022-09-13T14:53:07.866Z,6.57
2022-09-13T14:56:00.434Z,6.60
2022-09-13T14:58:53.038Z,6.15
2022-09-13T15:01:41.237Z,5.93
2022-09-13T15:04:29.471Z,6.25
2022-09-13T15:07:24.880Z,5.90
2022-09-13T15:10:23.963Z,5.80
2022-09-13T15:13:12.302Z,6.28
2022-09-13T15:16:01.951Z,6.20
2022-09-13T15:18:50.190Z,5.33
2022-09-13T15:21:38.377Z,5.38
2022-09-13T15:24:31.469Z,5.68
2022-09-13T15:27:28.173Z,6.60
2022-09-13T15:30:25.640Z,5.80
2022-09-13T15:33:29.723Z,6.47
2022-09-13T15:36:29.849Z,6.85
2022-09-13T15:39:20.163Z,6.38
2022-09-13T15:42:08.589Z,6.53
2022-09-13T15:44:56.959Z,6.72
2022-09-13T15:47:47.730Z,7.10
2022-09-13T15:50:38.679Z,7.82
2022-09-13T15:53:26.868Z,6.30
2022-09-13T15:56:17.061Z,6.40
2022-09-13T15:59:05.494Z,6.70
2022-09-13T16:01:54.118Z,6.68
2022-09-13T16:04:42.320Z,6.63
2022-09-13T16:07:31.913Z,5.97
2022-09-13T16:10:22.260Z,5.25
2022-09-13T16:13:10.491Z,5.82
2022-09-13T16:15:58.987Z,6.63
2022-09-13T16:18:47.219Z,5.93
2022-09-13T16:21:35.402Z,6.55
2022-09-13T16:24:24.857Z,7.15
2022-09-13T16:27:14.248Z,7.43
2022-09-13T16:30:03.460Z,7.80
2022-09-13T16:32:51.881Z,6.72
2022-09-13T16:35:40.016Z,7.50
2022-09-13T16:38:28.149Z,6.88
2022-09-13T16:41:17.637Z,6.65
2022-09-13T16:44:06.252Z,6.85
2022-09-13T16:46:54.503Z,7.20
2022-09-13T16:49:42.798Z,7.35
2022-09-13T16:52:31.049Z,7.32
2022-09-13T16:55:19.273Z,7.50
2022-09-13T16:58:08.758Z,6.85
2022-09-13T17:00:57.147Z,7.53
2022-09-13T17:03:45.648Z,6.80
2022-09-13T17:06:33.850Z,8.00
2022-09-13T17:09:23.786Z,6.80
2022-09-13T17:12:13.896Z,7.43
2022-09-13T17:15:03.457Z,6.80
2022-09-13T17:17:51.611Z,6.90
2022-09-13T17:20:44.432Z,7.15
2022-09-13T17:23:32.653Z,6.88
2022-09-13T17:26:20.985Z,6.93
2022-09-13T17:29:09.390Z,6.90
2022-09-13T17:31:59.029Z,6.45
2022-09-13T17:34:47.277Z,6.60
2022-09-13T17:37:35.445Z,6.63
2022-09-13T17:40:23.599Z,6.80
2022-09-13T17:43:11.818Z,6.30
2022-09-13T17:46:05.558Z,6.80
2022-09-13T17:48:56.137Z,6.60
2022-09-13T17:51:44.285Z,6.53
2022-09-13T17:54:32.423Z,5.93
2022-09-13T17:57:20.832Z,5.90
2022-09-13T18:00:10.725Z,5.88
2022-09-13T18:02:58.971Z,6.23
2022-09-13T18:05:48.581Z,5.38
2022-09-13T18:08:38.632Z,5.60
2022-09-13T18:11:26.872Z,5.28
2022-09-13T18:14:16.683Z,4.85
2022-09-13T18:17:10.560Z,5.10
2022-09-13T18:19:58.750Z,5.10
2022-09-13T18:22:48.226Z,5.03
2022-09-13T18:25:36.382Z,5.55
2022-09-13T18:28:24.671Z,5.75
2022-09-13T18:31:15.374Z,5.15
2022-09-13T18:36:54.229Z,4.65
2022-09-13T18:39:43.795Z,4.90
2022-09-13T18:42:33.475Z,4.22
2022-09-13T18:45:21.755Z,4.78
2022-09-13T18:48:09.905Z,4.68
2022-09-13T18:50:58.483Z,4.43
2022-09-13T18:53:47.584Z,4.70
2022-09-13T18:56:37.246Z,4.70
2022-09-13T18:59:25.444Z,4.63
2022-09-13T19:02:13.739Z,4.30
2022-09-13T19:05:06.427Z,4.22
2022-09-13T19:07:56.287Z,4.80
2022-09-13T19:10:44.488Z,4.72
2022-09-13T19:13:34.401Z,3.60
2022-09-13T19:16:22.708Z,4.07
2022-09-13T19:19:11.091Z,3.72
2022-09-13T19:21:59.338Z,4.43
2022-09-13T19:24:51.740Z,4.40
2022-09-13T19:27:39.926Z,4.20
2022-09-13T19:30:29.549Z,3.95
2022-09-13T19:33:17.751Z,3.90
2022-09-13T19:36:08.457Z,3.60
2022-09-13T19:38:59.294Z,3.42
2022-09-13T19:41:47.663Z,3.28
2022-09-13T19:44:35.824Z,3.70
2022-09-13T19:50:33.692Z,3.15
2022-09-13T19:53:31.911Z,3.22
2022-09-13T19:56:32.146Z,3.95
2022-09-13T19:59:20.813Z,4.07
2022-09-13T20:02:11.015Z,3.80
2022-09-13T20:05:00.587Z,4.10
2022-09-13T20:07:48.781Z,3.92
2022-09-13T20:10:39.052Z,4.28
2022-09-13T20:13:27.246Z,4.30
2022-09-13T20:16:18.483Z,4.28
2022-09-13T20:19:29.741Z,4.20
2022-09-13T20:22:17.508Z,3.85
2022-09-13T20:25:06.565Z,3.90
2022-09-13T20:27:54.715Z,4.00
2022-09-13T20:30:43.337Z,4.28
2022-09-13T20:33:31.884Z,3.85
2022-09-13T20:36:20.093Z,3.15
2022-09-13T20:39:10.199Z,3.13
2022-09-13T20:41:59.049Z,3.00
2022-09-13T20:44:47.185Z,3.40
2022-09-13T20:47:36.258Z,3.40
2022-09-13T20:50:24.393Z,2.97
2022-09-13T20:53:15.186Z,3.35
2022-09-13T20:58:57.387Z,3.33
2022-09-13T21:01:46.054Z,3.20
2022-09-13T21:04:34.348Z,3.40
2022-09-13T21:07:40.329Z,3.40
2022-09-13T21:10:28.975Z,3.28
2022-09-13T21:13:18.432Z,2.47
2022-09-13T21:16:08.063Z,2.50
2022-09-13T21:18:57.222Z,3.13
2022-09-13T21:21:45.547Z,2.50
2022-09-13T21:24:33.737Z,2.40
2022-09-13T21:27:22.020Z,2.35
2022-09-13T21:30:12.250Z,2.50
2022-09-13T21:33:00.381Z,2.47
2022-09-13T21:35:48.558Z,2.80
2022-09-13T21:38:37.377Z,2.47
2022-09-13T21:41:27.085Z,2.03
2022-09-13T21:44:15.253Z,2.47
2022-09-13T21:47:04.964Z,2.38
2022-09-13T21:49:53.284Z,1.88
2022-09-13T21:52:41.997Z,2.05
2022-09-13T21:55:31.378Z,2.10
2022-09-13T21:58:19.553Z,2.28
2022-09-13T22:01:09.906Z,1.90
2022-09-13T22:04:00.596Z,1.70
2022-09-13T22:06:51.610Z,2.03
2022-09-13T22:09:39.739Z,1.40
2022-09-13T22:12:27.906Z,1.67
2022-09-13T22:15:17.736Z,1.80
2022-09-13T22:18:05.917Z,1.90
2022-09-13T22:20:55.394Z,1.77
2022-09-13T22:23:44.028Z,1.52
2022-09-13T22:26:35.995Z,2.20
2022-09-13T22:29:24.657Z,1.30
2022-09-13T22:32:12.877Z,1.70
2022-09-13T22:35:01.647Z,1.65
2022-09-13T22:37:51.152Z,1.50
2022-09-13T22:40:39.299Z,1.90
2022-09-13T22:43:27.749Z,1.30
2022-09-13T22:46:18.117Z,1.50
2022-09-13T22:49:07.187Z,1.85
2022-09-13T22:51:55.384Z,1.73
2022-09-13T22:54:46.019Z,1.33
2022-09-13T22:57:34.201Z,1.80
2022-09-13T23:00:23.312Z,1.65
2022-09-13T23:03:12.108Z,1.75
2022-09-13T23:06:00.278Z,1.73
2022-09-13T23:08:49.776Z,1.45
2022-09-13T23:11:40.929Z,1.52
2022-09-13T23:14:29.105Z,1.67
2022-09-13T23:17:17.542Z,1.33
2022-09-13T23:20:06.801Z,1.27
2022-09-13T23:22:54.928Z,1.45
2022-09-13T23:25:43.043Z,1.30
2022-09-13T23:28:32.699Z,1.45
2022-09-13T23:31:22.558Z,1.73
2022-09-13T23:34:12.532Z,1.40
2022-09-13T23:37:00.700Z,2.05
2022-09-13T23:39:49.141Z,1.80
2022-09-13T23:42:37.323Z,1.50
2022-09-13T23:45:26.909Z,1.60
2022-09-13T23:48:15.151Z,1.10
2022-09-13T23:51:06.922Z,1.42
2022-09-13T23:53:57.448Z,1.40
2022-09-13T23:56:45.691Z,1.45
2022-09-13T23:59:33.905Z,1.80
